Time;durP1;ratioP1;P1;durP2;ratioP2;P2;SDS_P1;SDS_P2;PMS_P1;PMS_P2;Temp;Humidity;BMP_temperature;BMP_pressure;BME280_temperature;BME280_humidity;BME280_pressure;Samples;Min_cycle;Max_cycle;Signal;HPM_P1;HPM_P2
2021/04/04 00:02:15;;;;;;;9.30;5.10;;;;;;;4.55;52.63;99627.44;5089217;28;42995;-73
2021/04/04 00:04:42;;;;;;;6.87;4.57;;;;;;;4.53;52.23;99626.59;5107842;28;40846;-73
2021/04/04 00:07:10;;;;;;;6.93;4.30;;;;;;;4.45;52.22;99616.28;5109600;28;42240;-74
2021/04/04 00:09:37;;;;;;;6.90;4.33;;;;;;;4.53;52.50;99627.47;5091449;28;42733;-73
2021/04/04 00:12:17;;;;;;;4.70;3.70;;;;;;;4.52;52.36;99625.75;5131671;27;20559;-73
2021/04/04 00:14:45;;;;;;;6.17;4.07;;;;;;;4.52;52.48;99620.50;5130341;27;40163;-73
2021/04/04 00:17:12;;;;;;;6.47;3.83;;;;;;;4.39;52.54;99603.34;5132582;27;41881;-73
2021/04/04 00:19:39;;;;;;;7.37;4.33;;;;;;;4.49;52.73;99612.69;5132400;27;43733;-73
2021/04/04 00:22:06;;;;;;;6.20;3.60;;;;;;;4.47;52.50;99618.88;5132018;27;42031;-73
2021/04/04 00:24:33;;;;;;;4.73;3.50;;;;;;;4.43;52.36;99615.50;5130147;27;39860;-74
2021/04/04 00:27:00;;;;;;;6.00;3.70;;;;;;;4.39;52.38;99621.69;5126390;27;41416;-73
2021/04/04 00:29:28;;;;;;;7.87;4.10;;;;;;;4.36;52.51;99621.78;5117195;27;43256;-73
2021/04/04 00:31:56;;;;;;;5.50;3.90;;;;;;;4.30;52.66;99616.69;5105990;28;42185;-72
2021/04/04 00:34:23;;;;;;;5.50;4.17;;;;;;;4.28;52.61;99618.50;5117400;27;39658;-73
2021/04/04 00:36:51;;;;;;;5.77;4.20;;;;;;;4.16;52.66;99603.06;5128108;27;41395;-73
2021/04/04 00:39:19;;;;;;;8.50;5.07;;;;;;;4.22;54.48;99605.53;5120795;27;42589;-73
2021/04/04 00:41:46;;;;;;;7.60;4.73;;;;;;;4.20;53.75;99604.72;5106899;27;42774;-73
2021/04/04 00:44:13;;;;;;;9.90;4.00;;;;;;;4.18;53.47;99609.13;5107347;27;40698;-73
2021/04/04 00:46:41;;;;;;;7.83;3.43;;;;;;;4.16;53.50;99605.69;5105536;28;41373;-73
2021/04/04 00:49:08;;;;;;;5.73;3.73;;;;;;;4.16;53.64;99608.31;5121710;27;43146;-73
2021/04/04 00:51:36;;;;;;;9.20;4.30;;;;;;;4.15;53.80;99596.09;5126945;27;42815;-73
2021/04/04 00:54:07;;;;;;;8.43;4.77;;;;;;;4.13;54.92;99592.66;5125906;27;39372;-73
2021/04/04 00:56:35;;;;;;;5.47;3.73;;;;;;;4.13;54.94;99592.66;5127539;27;42195;-73
2021/04/04 00:59:03;;;;;;;9.30;4.33;;;;;;;4.13;55.45;99587.41;5126207;27;42795;-73
2021/04/04 01:01:33;;;;;;;7.87;4.70;;;;;;;4.11;55.09;99595.31;5109213;27;41327;-72
2021/04/04 01:04:01;;;;;;;7.10;4.37;;;;;;;4.10;55.22;99590.09;5127453;27;40740;-72
2021/04/04 01:06:28;;;;;;;7.63;4.47;;;;;;;4.09;55.18;99585.75;5125313;27;40577;-73
2021/04/04 01:08:55;;;;;;;9.07;4.97;;;;;;;4.00;54.76;99581.59;5105874;28;42794;-73
2021/04/04 01:11:31;;;;;;;7.80;4.70;;;;;;;4.01;55.04;99588.56;5106359;27;41869;-73
2021/04/04 01:14:06;;;;;;;6.17;4.30;;;;;;;3.92;54.97;99573.94;5111669;27;40663;-73
2021/04/04 01:16:38;;;;;;;6.90;5.37;;;;;;;3.89;55.01;99583.63;5125364;27;42440;-73
2021/04/04 01:19:10;;;;;;;7.60;5.50;;;;;;;3.88;54.76;99587.13;5127330;27;42748;-73
2021/04/04 01:21:45;;;;;;;7.90;4.50;;;;;;;3.83;54.86;99582.00;5123803;27;41355;-73
2021/04/04 01:24:32;;;;;;;7.57;5.20;;;;;;;3.79;55.04;99582.13;5094380;27;39707;-73
2021/04/04 01:27:07;;;;;;;5.87;4.30;;;;;;;3.75;55.35;99581.31;5091974;28;41708;-73
2021/04/04 01:29:38;;;;;;;9.63;4.87;;;;;;;3.71;56.13;99584.91;5091492;28;42712;-73
2021/04/04 01:32:05;;;;;;;6.97;4.87;;;;;;;3.69;56.28;99586.72;5093211;28;42933;-73
2021/04/04 01:34:35;;;;;;;9.63;5.13;;;;;;;3.65;56.25;99585.06;5121172;27;39545;-73
2021/04/04 01:37:05;;;;;;;6.47;3.97;;;;;;;3.62;55.78;99587.75;5074375;28;41743;-73
2021/04/04 01:39:38;;;;;;;9.23;4.53;;;;;;;3.58;55.74;99589.59;5092797;28;42968;-72
2021/04/04 01:42:09;;;;;;;7.83;4.17;;;;;;;3.54;55.40;99589.69;5090957;28;42157;-73
2021/04/04 01:44:41;;;;;;;7.60;4.57;;;;;;;3.50;55.39;99590.63;5075057;28;38997;-73
2021/04/04 01:47:09;;;;;;;7.03;4.83;;;;;;;3.46;55.31;99589.84;5092311;28;42159;-75
2021/04/04 01:49:38;;;;;;;6.13;4.03;;;;;;;3.42;55.29;99588.19;5089982;28;41685;-73
2021/04/04 01:52:06;;;;;;;6.27;4.07;;;;;;;3.34;55.35;99570.94;5112656;27;42957;-73
2021/04/04 01:54:33;;;;;;;5.90;3.70;;;;;;;3.35;55.38;99586.59;5111578;28;39686;-74
2021/04/04 01:57:01;;;;;;;7.33;3.93;;;;;;;3.31;55.14;99587.56;5106302;28;42434;-74
2021/04/04 01:59:32;;;;;;;4.63;3.60;;;;;;;3.22;55.69;99567.66;5092378;28;42604;-74
2021/04/04 02:02:01;;;;;;;8.00;4.17;;;;;;;3.15;56.08;99566.09;5090479;28;42708;-74
2021/04/04 02:04:29;;;;;;;6.33;4.53;;;;;;;3.22;56.30;99578.13;5104237;28;42036;-73
2021/04/04 02:06:57;;;;;;;5.67;4.20;;;;;;;3.20;55.87;99582.56;5112605;27;41713;-73
2021/04/04 02:09:25;;;;;;;5.80;4.00;;;;;;;3.18;55.72;99583.50;5112598;27;42639;-74
2021/04/04 02:11:53;;;;;;;6.23;4.00;;;;;;;3.14;55.61;99581.81;5109350;27;42206;-74
2021/04/04 02:14:23;;;;;;;6.13;4.23;;;;;;;3.10;55.70;99585.38;5092279;28;40734;-73
2021/04/04 02:16:55;;;;;;;7.17;4.23;;;;;;;3.08;56.64;99577.59;5092126;28;43345;-74
2021/04/04 02:19:26;;;;;;;5.50;4.03;;;;;;;3.08;56.81;99576.72;5081695;28;41936;-74
2021/04/04 02:21:56;;;;;;;7.23;4.87;;;;;;;3.04;56.67;99573.31;5110897;28;42115;-73
2021/04/04 02:24:26;;;;;;;7.27;4.37;;;;;;;3.02;57.47;99572.47;5111599;28;39810;-74
2021/04/04 02:26:53;;;;;;;7.23;4.67;;;;;;;3.00;57.36;99579.50;5111081;28;42161;-74
2021/04/04 02:29:21;;;;;;;5.67;4.70;;;;;;;2.97;57.06;99576.09;5094372;27;42697;-74
2021/04/04 02:31:53;;;;;;;7.30;4.63;;;;;;;2.92;57.07;99580.53;5090089;28;41939;-74
2021/04/04 02:34:23;;;;;;;8.60;4.73;;;;;;;2.88;57.01;99579.75;5089343;28;39560;-74
2021/04/04 02:36:53;;;;;;;5.87;4.00;;;;;;;2.85;57.20;99579.78;5090443;28;40672;-74
2021/04/04 02:39:26;;;;;;;7.07;5.00;;;;;;;2.81;56.80;99588.63;5103982;28;43566;-74
2021/04/04 02:41:54;;;;;;;5.07;4.07;;;;;;;2.77;56.83;99597.41;5101091;27;42837;-74
2021/04/04 02:44:25;;;;;;;4.60;3.17;;;;;;;2.63;56.86;99578.50;5091886;28;39638;-74
2021/04/04 02:46:55;;;;;;;7.27;4.40;;;;;;;2.67;56.58;99591.47;5094429;28;41298;-74
2021/04/04 02:49:28;;;;;;;7.23;4.47;;;;;;;2.64;56.79;99598.50;5112142;27;42928;-74
2021/04/04 02:52:01;;;;;;;8.23;4.73;;;;;;;2.61;57.00;99601.19;5111761;27;42871;-74
2021/04/04 02:54:31;;;;;;;9.10;4.10;;;;;;;2.57;58.33;99589.06;5097827;28;39847;-74
2021/04/04 02:56:59;;;;;;;9.43;5.40;;;;;;;2.57;58.99;99583.84;5091291;28;41802;-74
2021/04/04 02:59:29;;;;;;;8.00;4.43;;;;;;;2.49;59.43;99577.00;5073492;28;41930;-73
2021/04/04 03:01:59;;;;;;;7.53;4.50;;;;;;;2.52;58.98;99581.31;5093177;28;41964;-74
2021/04/04 03:04:31;;;;;;;6.50;4.40;;;;;;;2.51;58.65;99590.91;5111785;27;40708;-73
2021/04/04 03:07:00;;;;;;;6.17;4.00;;;;;;;2.47;58.31;99589.22;5110672;28;41189;-74
2021/04/04 03:09:29;;;;;;;5.27;4.00;;;;;;;2.44;58.04;99599.75;5100876;28;43248;-74
2021/04/04 03:11:57;;;;;;;7.00;4.57;;;;;;;2.40;57.86;99603.31;5089697;28;41063;-73
2021/04/04 03:14:26;;;;;;;6.40;4.07;;;;;;;2.38;57.90;99605.06;5073344;28;38796;-74
2021/04/04 03:16:54;;;;;;;6.00;3.77;;;;;;;2.34;57.76;99608.66;5091041;28;41797;-74
2021/04/04 03:19:24;;;;;;;6.17;4.20;;;;;;;2.30;58.01;99612.19;5109774;28;42762;-74
2021/04/04 03:21:54;;;;;;;10.80;4.90;;;;;;;2.26;58.01;99600.06;5111312;27;42077;-73
2021/04/04 03:24:25;;;;;;;5.53;3.60;;;;;;;2.22;58.39;99603.63;5110415;28;39899;-74
2021/04/04 03:26:53;;;;;;;6.83;4.40;;;;;;;2.18;58.68;99601.97;5110166;28;42264;-73
2021/04/04 03:29:21;;;;;;;6.83;4.10;;;;;;;2.14;58.63;99592.44;5095921;27;42502;-74
2021/04/04 03:31:49;;;;;;;8.47;5.07;;;;;;;2.10;58.59;99593.41;5089476;28;41913;-74
2021/04/04 03:34:17;;;;;;;7.53;4.93;;;;;;;2.06;58.47;99596.94;5091334;28;39934;-74
2021/04/04 03:36:45;;;;;;;6.53;4.33;;;;;;;2.01;59.40;99585.69;5090390;28;42464;-73
2021/04/04 03:39:13;;;;;;;7.07;5.00;;;;;;;2.00;58.95;99586.56;5089749;28;42609;-74
2021/04/04 03:41:42;;;;;;;4.73;3.93;;;;;;;1.93;60.29;99564.94;5090752;28;42136;-74
2021/04/04 03:44:11;;;;;;;11.00;5.40;;;;;;;2.01;60.08;99580.47;5098662;28;39927;-74
2021/04/04 03:46:41;;;;;;;9.33;4.53;;;;;;;1.97;59.74;99577.06;5109286;28;41716;-73
2021/04/04 03:49:08;;;;;;;6.67;4.37;;;;;;;1.63;59.24;99532.31;5111084;27;42514;-74
2021/04/04 03:51:35;;;;;;;5.47;3.97;;;;;;;1.91;59.25;99573.66;5110719;27;41954;-73
2021/04/04 03:54:04;;;;;;;6.27;4.43;;;;;;;1.88;59.03;99581.53;5090280;28;40611;-73
2021/04/04 03:56:35;;;;;;;7.43;4.67;;;;;;;1.84;59.05;99580.75;5090384;28;41673;-74
2021/04/04 03:59:07;;;;;;;9.93;4.77;;;;;;;1.80;59.12;99587.75;5074201;28;41943;-74
2021/04/04 04:01:37;;;;;;;5.77;4.00;;;;;;;1.74;58.93;99586.97;5105723;28;42178;-73
2021/04/04 04:04:08;;;;;;;11.10;5.20;;;;;;;1.69;59.00;99592.28;5091035;28;40579;-73
2021/04/04 04:06:37;;;;;;;7.00;4.23;;;;;;;1.65;58.87;99598.44;5090582;28;41664;-74
2021/04/04 04:09:06;;;;;;;6.80;3.70;;;;;;;1.50;58.82;99588.19;5101588;28;42631;-74
2021/04/04 04:11:36;;;;;;;5.60;4.10;;;;;;;1.54;58.88;99596.88;5089874;28;41881;-73
2021/04/04 04:14:06;;;;;;;10.30;5.03;;;;;;;1.50;58.99;99598.66;5098753;28;40455;-73
2021/04/04 04:16:35;;;;;;;8.00;4.07;;;;;;;1.46;59.14;99599.59;5109277;28;42037;-74
2021/04/04 04:19:03;;;;;;;8.30;5.10;;;;;;;1.42;59.13;99597.91;5110775;27;42815;-73
2021/04/04 04:21:33;;;;;;;7.30;3.90;;;;;;;1.30;59.22;99585.03;5109288;28;42186;-74
2021/04/04 04:24:01;;;;;;;8.80;4.13;;;;;;;1.18;59.23;99569.53;5090578;28;40603;-73
2021/04/04 04:26:30;;;;;;;6.23;4.07;;;;;;;1.30;59.19;99588.50;5090235;28;41345;-73
2021/04/04 04:28:58;;;;;;;7.40;3.97;;;;;;;1.27;59.17;99590.28;5110488;27;43401;-73
2021/04/04 04:31:32;;;;;;;7.57;4.17;;;;;;;1.17;59.25;99580.84;5109248;28;41194;-74
2021/04/04 04:34:01;;;;;;;7.57;4.87;;;;;;;1.22;59.15;99589.50;5110802;27;39958;-73
2021/04/04 04:36:31;;;;;;;6.10;4.40;;;;;;;1.15;59.67;99572.19;5098792;27;41366;-73
2021/04/04 04:38:58;;;;;;;4.47;3.80;;;;;;;1.22;59.82;99584.28;5088927;28;42027;-73
2021/04/04 04:41:26;;;;;;;4.40;3.27;;;;;;;1.22;60.15;99574.69;5088799;28;42164;-73
2021/04/04 04:43:58;;;;;;;5.87;3.67;;;;;;;1.25;61.27;99568.56;5090186;28;39841;-73
2021/04/04 04:46:28;;;;;;;8.03;4.50;;;;;;;1.25;61.60;99564.19;5107141;28;40554;-74
2021/04/04 04:48:55;;;;;;;9.70;5.47;;;;;;;1.28;61.30;99565.91;5109309;28;42249;-74
2021/04/04 04:51:23;;;;;;;5.87;4.50;;;;;;;1.29;60.96;99570.25;5087312;28;42192;-73
2021/04/04 04:53:51;;;;;;;8.60;4.33;;;;;;;1.29;60.74;99573.72;5105346;28;39898;-74
2021/04/04 04:56:21;;;;;;;6.27;4.80;;;;;;;1.29;60.50;99578.06;5088118;28;42161;-73
2021/04/04 04:58:48;;;;;;;4.97;3.60;;;;;;;1.29;60.39;99575.47;5091756;28;42800;-73
2021/04/04 05:01:17;;;;;;;6.37;4.63;;;;;;;1.29;60.22;99588.50;5092024;28;42102;-78
2021/04/04 05:03:47;;;;;;;7.30;4.90;;;;;;;1.28;60.47;99574.59;5093343;28;40569;-73
2021/04/04 05:06:16;;;;;;;8.50;5.13;;;;;;;1.29;60.35;99581.53;5093157;28;41160;-74
2021/04/04 05:08:44;;;;;;;4.87;4.10;;;;;;;1.31;60.36;99576.31;5113435;27;43535;-73
2021/04/04 05:11:15;;;;;;;5.10;3.70;;;;;;;1.33;60.25;99574.56;5111745;28;42494;-73
2021/04/04 05:13:42;;;;;;;5.40;3.80;;;;;;;1.35;60.16;99575.41;5095376;28;39978;-73
2021/04/04 05:16:11;;;;;;;4.80;3.80;;;;;;;1.28;60.09;99560.69;5091822;28;40633;-73
2021/04/04 05:18:38;;;;;;;7.63;4.27;;;;;;;1.41;60.03;99576.16;5098880;28;42817;-73
2021/04/04 05:21:06;;;;;;;5.80;4.20;;;;;;;1.46;60.21;99568.28;5111939;28;42947;-73
2021/04/04 05:23:34;;;;;;;5.83;3.40;;;;;;;1.50;60.95;99559.50;5095586;28;39002;-73
2021/04/04 05:26:01;;;;;;;7.07;4.27;;;;;;;1.57;61.31;99561.16;5112020;28;41788;-74
2021/04/04 05:28:28;;;;;;;5.83;4.27;;;;;;;1.64;60.89;99567.13;5113363;27;43459;-74
2021/04/04 05:31:01;;;;;;;6.73;4.27;;;;;;;1.69;60.64;99566.19;5113184;27;42010;-74
2021/04/04 05:33:29;;;;;;;6.50;4.47;;;;;;;1.75;60.34;99563.47;5112642;27;40628;-74
2021/04/04 05:36:01;;;;;;;8.07;4.27;;;;;;;1.83;60.28;99563.34;5110453;28;40720;-73
2021/04/04 05:38:29;;;;;;;5.03;4.20;;;;;;;1.88;60.06;99565.88;5091642;28;43848;-73
2021/04/04 05:40:57;;;;;;;6.10;4.57;;;;;;;1.95;60.15;99573.59;5091335;28;41872;-73
2021/04/04 05:43:26;;;;;;;7.27;4.90;;;;;;;2.02;60.80;99574.34;5108198;28;39613;-73
2021/04/04 05:46:01;;;;;;;7.83;5.00;;;;;;;2.08;60.44;99571.66;5112690;27;41515;-73
2021/04/04 05:48:46;;;;;;;7.90;4.73;;;;;;;2.21;59.96;99575.78;5111457;28;43480;-74
2021/04/04 05:51:25;;;;;;;6.37;4.80;;;;;;;2.38;59.44;99581.56;5110905;28;41213;-73
2021/04/04 05:54:08;;;;;;;4.70;4.13;;;;;;;2.60;59.22;99578.56;5112463;27;40173;-73
2021/04/04 05:56:41;;;;;;;4.33;3.87;;;;;;;2.71;59.05;99581.84;5111503;28;41236;-73
2021/04/04 05:59:11;;;;;;;6.93;4.57;;;;;;;2.80;59.17;99582.50;5106234;28;43447;-73
2021/04/04 06:02:32;;;;;;;7.77;4.53;;;;;;;2.92;59.75;99586.66;5112305;27;42072;-73
2021/04/04 06:05:02;;;;;;;6.00;4.73;;;;;;;3.03;59.53;99584.66;5112398;27;40703;-73
2021/04/04 06:07:59;;;;;;;5.70;4.30;;;;;;;3.15;59.56;99576.56;5112791;27;41585;-73
2021/04/04 06:10:36;;;;;;;8.10;5.00;;;;;;;3.30;59.55;99582.38;5110114;28;42697;-74
2021/04/04 06:13:11;;;;;;;6.90;5.07;;;;;;;3.42;59.43;99582.09;5097602;27;42746;-73
2021/04/04 06:15:50;;;;;;;5.90;4.70;;;;;;;3.55;59.33;99580.94;5090838;28;39732;-73
2021/04/04 06:18:36;;;;;;;8.37;4.97;;;;;;;3.66;58.85;99585.94;5092307;28;41604;-73
2021/04/04 06:21:11;;;;;;;8.00;4.70;;;;;;;3.75;58.98;99580.47;5098174;28;42852;-73
2021/04/04 06:23:46;;;;;;;13.90;6.23;;;;;;;3.87;58.91;99588.03;5111086;28;41895;-73
2021/04/04 06:26:24;;;;;;;10.33;6.13;;;;;;;4.00;59.22;99593.84;5112198;27;39977;-74
2021/04/04 06:28:54;;;;;;;7.03;5.40;;;;;;;4.11;58.97;99589.19;5092868;28;42181;-73
2021/04/04 06:31:32;;;;;;;8.83;5.80;;;;;;;4.14;58.86;99573.41;5090067;28;42734;-73
2021/04/04 06:34:07;;;;;;;8.37;5.57;;;;;;;4.42;58.80;99595.41;5090664;28;42004;-74
2021/04/04 06:36:38;;;;;;;9.57;5.53;;;;;;;4.61;58.65;99595.78;5101979;28;40604;-74
2021/04/04 06:39:39;;;;;;;8.80;5.43;;;;;;;4.83;58.37;99590.78;5111136;28;41484;-73
2021/04/04 06:42:17;;;;;;;7.77;5.70;;;;;;;5.05;57.98;99595.44;5094789;27;42639;-75
2021/04/04 06:45:01;;;;;;;7.60;4.77;;;;;;;5.27;57.80;99597.44;5091582;28;42087;-75
2021/04/04 06:47:40;;;;;;;8.33;5.17;;;;;;;5.58;57.44;99602.63;5090903;28;38837;-74
2021/04/04 06:50:15;;;;;;;7.50;5.00;;;;;;;5.94;57.03;99598.88;5091371;28;41592;-74
2021/04/04 06:53:03;;;;;;;6.17;4.60;;;;;;;6.33;56.03;99603.75;5107017;27;42506;-74
2021/04/04 06:55:39;;;;;;;9.67;5.37;;;;;;;6.71;55.42;99605.94;5090212;28;42026;-73
2021/04/04 06:58:30;;;;;;;13.23;6.83;;;;;;;7.08;54.72;99604.63;5095146;28;40704;-74
2021/04/04 07:01:10;;;;;;;11.17;5.70;;;;;;;7.36;54.05;99600.06;5110008;28;41416;-74
2021/04/04 07:03:46;;;;;;;7.63;5.37;;;;;;;7.63;53.67;99599.94;5094095;28;42389;-74
2021/04/04 07:06:54;;;;;;;9.43;5.67;;;;;;;7.95;53.17;99612.72;5110099;28;41884;-73
2021/04/04 07:09:41;;;;;;;10.43;5.23;;;;;;;8.11;52.52;99602.41;5090220;28;39889;-74
2021/04/04 07:12:22;;;;;;;7.70;5.83;;;;;;;8.41;51.31;99637.25;5089634;28;40184;-74
2021/04/04 07:15:06;;;;;;;9.13;5.50;;;;;;;8.55;51.06;99642.81;5091139;28;42741;-74
2021/04/04 07:17:57;;;;;;;9.27;5.50;;;;;;;8.67;50.80;99634.41;5102113;28;42200;-74
2021/04/04 07:20:47;;;;;;;6.47;5.03;;;;;;;8.81;50.48;99632.03;5092769;28;39969;-74
2021/04/04 07:23:45;;;;;;;9.43;5.77;;;;;;;9.02;50.53;99629.41;5105665;28;42088;-74
2021/04/04 07:26:26;;;;;;;6.70;4.77;;;;;;;9.17;50.06;99632.19;5106300;28;42759;-74
2021/04/04 07:29:04;;;;;;;8.63;5.47;;;;;;;9.39;49.40;99626.84;5091136;28;42317;-74
2021/04/04 07:31:49;;;;;;;9.90;5.43;;;;;;;9.57;48.51;99633.91;5127011;27;20962;-73
2021/04/04 07:34:22;;;;;;;8.13;5.10;;;;;;;9.70;48.33;99634.19;5127214;27;38407;-73
2021/04/04 07:37:02;;;;;;;8.97;5.40;;;;;;;9.94;48.24;99640.97;5128238;27;40945;-73
2021/04/04 07:39:33;;;;;;;10.37;5.47;;;;;;;10.09;47.35;99623.53;5115515;27;42590;-73
2021/04/04 07:42:09;;;;;;;10.67;5.27;;;;;;;10.32;47.00;99631.22;5123087;27;42813;-74
2021/04/04 07:44:42;;;;;;;12.67;5.47;;;;;;;10.48;47.14;99630.47;5107492;27;40503;-73
2021/04/04 07:47:16;;;;;;;10.20;5.33;;;;;;;10.75;46.14;99650.28;5108641;27;42364;-73
2021/04/04 07:49:47;;;;;;;11.00;5.60;;;;;;;10.87;45.87;99644.38;5126254;27;43467;-72
2021/04/04 07:52:22;;;;;;;8.13;5.33;;;;;;;11.00;46.05;99640.13;5126390;27;42105;-73
2021/04/04 07:54:56;;;;;;;10.43;5.50;;;;;;;11.20;45.60;99654.16;5116208;27;40904;-73
2021/04/04 07:57:30;;;;;;;9.60;4.60;;;;;;;11.29;45.07;99649.22;5114967;27;42562;-73
2021/04/04 08:00:04;;;;;;;9.20;5.37;;;;;;;11.38;44.62;99647.88;5127768;27;43630;-74
2021/04/04 08:02:43;;;;;;;10.63;5.07;;;;;;;11.46;45.03;99651.84;5126737;27;41307;-73
2021/04/04 08:05:14;;;;;;;9.40;5.50;;;;;;;11.58;44.06;99660.94;5126195;27;39961;-73
2021/04/04 08:07:52;;;;;;;9.87;5.27;;;;;;;11.58;43.70;99647.69;5126272;27;42354;-73
2021/04/04 08:10:26;;;;;;;9.97;4.93;;;;;;;11.78;44.09;99663.41;5127301;27;42621;-74
2021/04/04 08:13:01;;;;;;;9.13;5.23;;;;;;;11.90;43.99;99666.31;5124891;27;42256;-74
2021/04/04 08:15:34;;;;;;;9.20;4.93;;;;;;;11.97;43.80;99670.38;5106745;27;40327;-74
2021/04/04 08:18:02;;;;;;;7.60;5.07;;;;;;;12.08;43.62;99667.97;5107369;27;41848;-74
2021/04/04 08:20:35;;;;;;;9.87;5.13;;;;;;;12.20;43.49;99670.78;5106490;27;43246;-74
2021/04/04 08:23:04;;;;;;;9.53;4.50;;;;;;;12.15;42.36;99669.31;5121222;27;42911;-74
2021/04/04 08:25:40;;;;;;;14.03;5.20;;;;;;;12.21;42.33;99674.31;5125657;27;39945;-74
2021/04/04 08:28:13;;;;;;;7.17;4.40;;;;;;;12.41;42.61;99675.81;5127164;27;43039;-74
2021/04/04 08:30:46;;;;;;;9.90;5.00;;;;;;;12.67;42.90;99671.69;5126464;27;42604;-74
2021/04/04 08:33:19;;;;;;;10.37;5.40;;;;;;;12.90;42.31;99668.53;5114620;27;42232;-74
2021/04/04 08:35:50;;;;;;;9.20;5.30;;;;;;;13.11;42.38;99664.59;5113377;27;40188;-75
2021/04/04 08:38:24;;;;;;;7.83;5.37;;;;;;;13.34;41.36;99679.22;5127361;27;41619;-74
2021/04/04 08:40:54;;;;;;;8.07;5.07;;;;;;;13.55;40.72;99677.03;5123799;27;42732;-74
2021/04/04 08:43:22;;;;;;;8.33;4.93;;;;;;;13.80;40.56;99671.91;5092499;28;42305;-75
2021/04/04 08:45:54;;;;;;;8.67;5.03;;;;;;;14.07;40.15;99655.13;5093224;28;39709;-74
2021/04/04 08:48:23;;;;;;;11.73;5.60;;;;;;;14.48;39.07;99679.09;5109892;28;41727;-74
2021/04/04 08:50:53;;;;;;;9.33;4.53;;;;;;;14.80;38.70;99680.53;5116920;28;44143;-75
2021/04/04 08:53:28;;;;;;;8.97;5.50;;;;;;;15.19;37.04;99673.47;5118033;28;41468;-75
2021/04/04 08:55:55;;;;;;;10.30;5.63;;;;;;;15.54;36.71;99676.34;5118507;27;39474;-76
2021/04/04 08:58:27;;;;;;;8.90;5.33;;;;;;;16.11;35.68;99645.53;5099249;28;41651;-74
2021/04/04 09:01:03;;;;;;;9.87;5.27;;;;;;;17.01;35.07;99687.00;5095544;28;42991;-75
2021/04/04 09:03:37;;;;;;;8.57;4.93;;;;;;;18.52;33.11;99685.78;5099372;28;42243;-74
2021/04/04 09:06:06;;;;;;;8.33;5.40;;;;;;;20.86;29.91;99724.53;5112703;27;39850;-74
2021/04/04 09:08:35;;;;;;;11.90;5.10;;;;;;;22.45;27.29;99735.50;5113022;27;41460;-73
2021/04/04 09:11:03;;;;;;;10.67;4.83;;;;;;;22.16;26.47;99726.66;5112669;27;42661;-74
2021/04/04 09:13:32;;;;;;;10.93;5.70;;;;;;;23.46;25.66;99739.78;5092683;28;42110;-75
2021/04/04 09:16:06;;;;;;;7.70;4.77;;;;;;;24.51;24.39;99736.91;5092111;28;39933;-75
2021/04/04 09:18:43;;;;;;;7.30;5.03;;;;;;;24.12;23.70;99741.94;5097961;28;42498;-74
2021/04/04 09:21:11;;;;;;;9.90;5.20;;;;;;;24.02;23.29;99740.34;5111010;28;42692;-74
2021/04/04 09:23:39;;;;;;;7.73;4.83;;;;;;;24.25;24.25;99733.41;5111639;28;42286;-74
2021/04/04 09:26:07;;;;;;;8.77;5.27;;;;;;;24.62;23.43;99731.19;5112681;27;40602;-75
2021/04/04 09:28:36;;;;;;;7.73;5.43;;;;;;;24.72;23.45;99730.22;5095041;28;40668;-74
2021/04/04 09:31:07;;;;;;;7.07;4.60;;;;;;;24.84;23.16;99731.63;5090093;28;43458;-74
2021/04/04 09:33:38;;;;;;;7.03;4.83;;;;;;;24.58;23.30;99727.13;5092428;28;41809;-74
2021/04/04 09:36:07;;;;;;;7.43;5.23;;;;;;;24.99;23.06;99721.81;5090291;28;39279;-74
2021/04/04 09:38:38;;;;;;;9.43;5.33;;;;;;;26.52;21.48;99725.41;5103624;28;41659;-74
2021/04/04 09:41:06;;;;;;;8.13;4.97;;;;;;;28.52;19.51;99735.84;5102334;28;41735;-74
2021/04/04 09:43:38;;;;;;;7.87;4.80;;;;;;;29.62;18.60;99736.47;5091791;28;42714;-75
2021/04/04 09:46:07;;;;;;;6.53;4.57;;;;;;;28.90;18.39;99727.53;5090379;28;39591;-74
2021/04/04 09:48:40;;;;;;;7.73;4.70;;;;;;;27.86;19.11;99717.69;5092037;28;41737;-74
2021/04/04 09:51:10;;;;;;;5.73;4.23;;;;;;;27.51;19.31;99714.59;5090168;28;43370;-74
2021/04/04 09:53:39;;;;;;;10.27;4.60;;;;;;;28.16;18.98;99716.69;5099073;28;42198;-74
2021/04/04 09:56:08;;;;;;;7.30;4.27;;;;;;;28.16;18.15;99716.69;5112056;27;40193;-75
2021/04/04 09:58:38;;;;;;;5.87;3.27;;;;;;;27.63;19.86;99711.44;5112340;27;42143;-74
2021/04/04 10:01:17;;;;;;;6.73;3.47;;;;;;;27.19;18.88;99714.84;5110077;28;43471;-74
2021/04/04 10:04:04;;;;;;;5.83;3.03;;;;;;;27.26;18.76;99712.25;5070393;28;42370;-74
2021/04/04 10:06:32;;;;;;;7.23;4.13;;;;;;;28.14;17.99;99707.84;5082784;28;39547;-75
2021/04/04 10:09:02;;;;;;;7.33;4.47;;;;;;;28.39;17.46;99713.03;5112149;27;42231;-74
2021/04/04 10:11:31;;;;;;;6.90;3.83;;;;;;;28.23;17.31;99708.63;5111548;27;45032;-75
2021/04/04 10:14:09;;;;;;;5.73;3.77;;;;;;;29.22;17.37;99697.03;5111943;27;42151;-74
2021/04/04 10:16:37;;;;;;;7.03;4.00;;;;;;;29.84;16.42;99706.38;5093525;28;40416;-75
2021/04/04 10:19:07;;;;;;;10.37;5.20;;;;;;;31.07;14.89;99709.13;5091526;28;41403;-75
2021/04/04 10:21:35;;;;;;;7.60;4.73;;;;;;;31.70;14.25;99721.47;5090110;28;41750;-74
2021/04/04 10:24:25;;;;;;;7.10;4.57;;;;;;;32.30;13.99;99719.50;5090250;28;42096;-75
2021/04/04 10:27:20;;;;;;;8.43;4.80;;;;;;;32.32;14.12;99706.41;5074893;28;39860;-74
2021/04/04 10:29:49;;;;;;;9.57;4.70;;;;;;;32.61;14.45;99696.00;5069626;28;40604;-74
2021/04/04 10:32:25;;;;;;;7.50;4.30;;;;;;;32.67;13.81;99706.06;5086006;28;43489;-74
2021/04/04 10:34:53;;;;;;;6.03;4.27;;;;;;;31.65;14.32;99702.06;5095396;28;41703;-75
2021/04/04 10:37:25;;;;;;;6.60;4.53;;;;;;;30.65;14.77;99688.41;5110357;28;38986;-75
2021/04/04 10:39:57;;;;;;;8.43;4.83;;;;;;;30.62;14.48;99691.53;5109815;28;41877;-74
2021/04/04 10:42:25;;;;;;;8.50;5.43;;;;;;;31.82;14.18;99685.22;5110074;28;43038;-75
2021/04/04 10:45:07;;;;;;;6.97;4.30;;;;;;;32.90;13.30;99689.94;5106257;27;42899;-75
2021/04/04 10:47:34;;;;;;;8.87;5.67;;;;;;;31.40;14.03;99671.72;5111513;27;40592;-75
2021/04/04 10:50:04;;;;;;;8.80;4.77;;;;;;;31.12;14.24;99681.19;5111483;27;41531;-74
2021/04/04 10:52:33;;;;;;;9.10;4.57;;;;;;;31.50;13.99;99671.31;5110101;28;41753;-75
2021/04/04 10:55:02;;;;;;;8.33;4.97;;;;;;;29.98;15.17;99659.88;5070615;28;41975;-74
2021/04/04 10:57:31;;;;;;;8.23;5.10;;;;;;;28.82;15.89;99660.31;5070730;28;39709;-74
2021/04/04 10:59:59;;;;;;;7.03;4.73;;;;;;;30.26;15.38;99648.91;5065122;28;41556;-74
2021/04/04 11:02:26;;;;;;;7.27;4.83;;;;;;;31.47;15.16;99646.25;5110050;28;41734;-75
2021/04/04 11:04:53;;;;;;;8.27;4.97;;;;;;;32.59;13.83;99657.81;5109253;28;42455;-75
2021/04/04 11:07:21;;;;;;;9.37;5.00;;;;;;;32.98;13.53;99654.03;5109573;28;39629;-74
2021/04/04 11:09:48;;;;;;;8.33;4.90;;;;;;;31.69;13.99;99645.81;5093774;28;42317;-75
2021/04/04 11:12:16;;;;;;;8.70;5.40;;;;;;;31.50;14.56;99637.59;5090367;28;43455;-75
2021/04/04 11:14:47;;;;;;;8.63;4.83;;;;;;;30.43;14.87;99629.38;5091471;28;42503;-74
2021/04/04 11:17:18;;;;;;;8.80;4.83;;;;;;;31.45;14.75;99635.50;5109483;28;40759;-75
2021/04/04 11:19:47;;;;;;;7.63;4.43;;;;;;;33.09;13.56;99636.00;5109195;28;41548;-74
2021/04/04 11:22:17;;;;;;;7.30;4.93;;;;;;;32.88;12.84;99642.69;5109650;27;43877;-75
2021/04/04 11:24:58;;;;;;;9.10;4.83;;;;;;;31.10;14.10;99625.81;5090498;28;42883;-74
2021/04/04 11:27:40;;;;;;;8.80;3.70;;;;;;;29.43;15.08;99616.19;5089382;28;39674;-74
2021/04/04 11:30:13;;;;;;;7.73;4.77;;;;;;;31.02;14.82;99610.41;5091449;28;42344;-75
2021/04/04 11:32:42;;;;;;;7.47;4.47;;;;;;;32.94;13.97;99614.34;5110832;27;42862;-75
2021/04/04 11:35:10;;;;;;;7.07;4.13;;;;;;;32.04;14.30;99610.75;5108965;28;42152;-75
2021/04/04 11:37:39;;;;;;;5.43;3.90;;;;;;;31.70;14.12;99611.91;5109845;28;39038;-75
2021/04/04 11:40:17;;;;;;;6.13;3.90;;;;;;;30.40;14.96;99616.16;5097163;28;41318;-74
2021/04/04 11:42:46;;;;;;;6.97;4.00;;;;;;;29.20;15.62;99610.94;5089133;28;42581;-75
2021/04/04 11:45:33;;;;;;;6.03;3.73;;;;;;;28.45;16.25;99595.06;5088165;28;42925;-74
2021/04/04 11:48:27;;;;;;;8.03;4.83;;;;;;;27.40;16.71;99579.00;5070074;28;40534;-74
2021/04/04 11:50:54;;;;;;;8.23;4.00;;;;;;;27.28;16.72;99574.19;5069457;28;41805;-75
2021/04/04 11:53:41;;;;;;;6.67;4.20;;;;;;;27.76;16.92;99567.38;5068614;28;42487;-75
2021/04/04 11:56:09;;;;;;;8.63;3.83;;;;;;;30.31;16.15;99561.66;5102261;28;42104;-74
2021/04/04 11:58:37;;;;;;;7.40;4.37;;;;;;;30.16;15.04;99566.47;5110617;27;39647;-75
2021/04/04 12:01:04;;;;;;;7.37;4.60;;;;;;;30.22;14.57;99568.34;5110191;27;42079;-75
2021/04/04 12:03:31;;;;;;;7.10;4.20;;;;;;;31.75;14.35;99551.84;5110398;27;42692;-74